createdAt,value
2023-05-19T00:00:37.130Z,2.13
2023-05-19T00:03:08.960Z,2.53
2023-05-19T00:05:40.806Z,2.60
2023-05-19T00:08:11.169Z,2.37
2023-05-19T00:10:40.548Z,2.93
2023-05-19T00:13:09.482Z,2.50
2023-05-19T00:15:38.829Z,3.20
2023-05-19T00:18:10.038Z,2.80
2023-05-19T00:20:38.911Z,2.40
2023-05-19T00:23:07.656Z,3.07
2023-05-19T00:25:36.322Z,2.60
2023-05-19T00:28:05.408Z,2.57
2023-05-19T00:30:34.259Z,2.20
2023-05-19T00:33:03.137Z,2.33
2023-05-19T00:35:33.224Z,2.77
2023-05-19T00:38:01.907Z,2.33
2023-05-19T00:40:31.314Z,3.23
2023-05-19T00:43:00.462Z,2.50
2023-05-19T00:45:29.561Z,2.80
2023-05-19T00:47:58.501Z,2.60
2023-05-19T00:50:28.397Z,2.90
2023-05-19T00:52:58.454Z,3.90
2023-05-19T00:55:29.565Z,2.23
2023-05-19T00:57:58.484Z,2.73
2023-05-19T01:00:27.168Z,2.90
2023-05-19T01:02:56.149Z,2.60
2023-05-19T01:05:24.825Z,2.40
2023-05-19T01:07:55.561Z,1.87
2023-05-19T01:10:25.648Z,2.57
2023-05-19T01:12:54.324Z,2.50
2023-05-19T01:15:23.336Z,2.60
2023-05-19T01:17:57.157Z,2.47
2023-05-19T01:20:33.212Z,2.80
2023-05-19T01:23:17.190Z,2.30
2023-05-19T01:26:13.659Z,2.67
2023-05-19T01:28:58.780Z,2.33
2023-05-19T01:31:29.007Z,2.60
2023-05-19T01:33:58.413Z,2.60
2023-05-19T01:36:27.635Z,2.97
2023-05-19T01:39:01.399Z,3.07
2023-05-19T01:41:30.715Z,2.43
2023-05-19T01:43:59.514Z,2.60
2023-05-19T01:46:29.636Z,2.50
2023-05-19T01:48:59.066Z,2.80
2023-05-19T01:51:28.527Z,2.80
2023-05-19T01:53:57.464Z,2.63
2023-05-19T01:56:33.713Z,2.77
2023-05-19T01:59:09.835Z,2.63
2023-05-19T02:01:47.751Z,2.67
2023-05-19T02:04:21.545Z,2.27
2023-05-19T02:06:56.373Z,2.27
2023-05-19T02:09:34.067Z,2.20
2023-05-19T02:12:07.504Z,2.07
2023-05-19T02:14:41.418Z,2.33
2023-05-19T02:17:13.646Z,2.20
2023-05-19T02:19:42.634Z,2.50
2023-05-19T02:22:11.456Z,2.40
2023-05-19T02:24:41.425Z,2.87
2023-05-19T02:27:10.061Z,2.70
2023-05-19T02:29:38.741Z,1.90
2023-05-19T02:32:08.475Z,2.30
2023-05-19T02:34:38.570Z,2.67
2023-05-19T02:37:07.802Z,2.53
2023-05-19T02:39:36.436Z,2.57
2023-05-19T02:42:05.579Z,2.37
2023-05-19T02:44:34.379Z,2.00
2023-05-19T02:47:03.135Z,2.47
2023-05-19T02:49:35.769Z,2.50
2023-05-19T02:52:06.842Z,3.37
2023-05-19T02:54:36.173Z,3.27
2023-05-19T02:57:05.139Z,3.10
2023-05-19T02:59:33.811Z,2.80
2023-05-19T03:02:03.258Z,2.90
2023-05-19T03:04:31.930Z,2.80
2023-05-19T03:07:00.593Z,3.00
2023-05-19T03:09:31.249Z,2.43
2023-05-19T03:12:03.890Z,2.60
2023-05-19T03:14:33.574Z,2.63
2023-05-19T03:17:02.331Z,2.20
2023-05-19T03:19:32.434Z,2.40
2023-05-19T03:22:01.050Z,2.73
2023-05-19T03:24:31.044Z,2.63
2023-05-19T03:26:59.680Z,2.13
2023-05-19T03:29:28.376Z,2.43
2023-05-19T03:31:57.053Z,2.80
2023-05-19T03:34:25.794Z,2.90
2023-05-19T03:36:54.399Z,2.50
2023-05-19T03:39:23.046Z,2.30
2023-05-19T03:41:53.002Z,2.80
2023-05-19T03:44:21.685Z,2.53
2023-05-19T03:46:50.401Z,2.57
2023-05-19T03:49:19.170Z,2.30
2023-05-19T03:51:47.852Z,2.90
2023-05-19T03:54:16.916Z,2.53
2023-05-19T03:56:46.063Z,2.93
2023-05-19T03:59:16.123Z,2.60
2023-05-19T04:01:44.780Z,3.00
2023-05-19T04:04:13.417Z,2.37
2023-05-19T04:06:42.070Z,2.30
2023-05-19T04:09:13.783Z,3.33
2023-05-19T04:11:42.959Z,2.67
2023-05-19T04:14:11.613Z,2.30
2023-05-19T04:16:41.998Z,2.10
2023-05-19T04:19:10.778Z,2.80
2023-05-19T04:21:39.462Z,2.50
2023-05-19T04:24:08.492Z,2.27
2023-05-19T04:26:38.347Z,2.53
2023-05-19T04:29:07.053Z,2.80
2023-05-19T04:31:36.434Z,2.80
2023-05-19T04:34:07.837Z,3.70
2023-05-19T04:36:36.620Z,3.17
2023-05-19T04:39:07.893Z,2.83
2023-05-19T04:41:36.588Z,3.00
2023-05-19T04:44:05.256Z,2.70
2023-05-19T04:46:33.953Z,2.70
2023-05-19T04:49:03.159Z,3.07
2023-05-19T04:51:33.287Z,2.63
2023-05-19T04:54:02.311Z,2.80
2023-05-19T04:56:30.930Z,2.77
2023-05-19T04:58:59.647Z,2.67
2023-05-19T05:01:28.395Z,2.33
2023-05-19T05:03:58.931Z,3.13
2023-05-19T05:06:28.605Z,3.10
2023-05-19T05:08:58.595Z,3.30
2023-05-19T05:11:28.192Z,2.63
2023-05-19T05:13:58.082Z,2.70
2023-05-19T05:16:27.984Z,2.73
2023-05-19T05:18:57.515Z,2.70
2023-05-19T05:21:27.162Z,2.57
2023-05-19T05:23:56.356Z,2.47
2023-05-19T05:26:30.737Z,2.80
2023-05-19T05:28:59.414Z,2.90
2023-05-19T05:31:28.090Z,2.80
2023-05-19T05:33:56.777Z,3.77
2023-05-19T05:36:25.456Z,3.07
2023-05-19T05:38:54.137Z,3.53
2023-05-19T05:41:22.823Z,2.80
2023-05-19T05:43:52.768Z,2.80
2023-05-19T05:46:21.502Z,3.23
2023-05-19T05:48:50.833Z,3.00
2023-05-19T05:51:22.484Z,3.13
2023-05-19T05:53:54.075Z,2.73
2023-05-19T05:56:23.244Z,2.67
2023-05-19T05:58:53.729Z,2.67
2023-05-19T06:01:23.957Z,2.33
2023-05-19T06:03:52.678Z,3.20
2023-05-19T06:06:21.311Z,2.77
2023-05-19T06:08:50.005Z,2.57
2023-05-19T06:11:19.581Z,2.80
2023-05-19T06:13:48.307Z,3.20
2023-05-19T06:16:18.350Z,3.00
2023-05-19T06:18:47.103Z,3.27
2023-05-19T06:21:17.536Z,2.53
2023-05-19T06:23:46.247Z,2.60
2023-05-19T06:26:15.381Z,2.67
2023-05-19T06:28:44.032Z,2.97
2023-05-19T06:31:12.670Z,2.73
2023-05-19T06:33:42.679Z,2.33
2023-05-19T06:36:12.045Z,2.90
2023-05-19T06:38:40.990Z,3.30
2023-05-19T06:41:09.788Z,2.97
2023-05-19T06:43:38.517Z,2.97
2023-05-19T06:46:07.147Z,2.60
2023-05-19T06:48:35.886Z,2.83
2023-05-19T06:51:06.316Z,3.27
2023-05-19T06:53:34.972Z,3.50
2023-05-19T06:56:03.621Z,3.20
2023-05-19T06:58:32.256Z,2.90
2023-05-19T07:01:00.956Z,3.20
2023-05-19T07:03:30.948Z,2.83
2023-05-19T07:05:59.854Z,3.03
2023-05-19T07:08:29.925Z,3.37
2023-05-19T07:10:58.603Z,2.70
2023-05-19T07:13:27.761Z,3.70
2023-05-19T07:15:56.672Z,3.10
2023-05-19T07:18:25.414Z,2.70
2023-05-19T07:20:54.299Z,2.80
2023-05-19T07:23:22.947Z,3.37
2023-05-19T07:25:55.302Z,3.30
2023-05-19T07:28:23.969Z,2.50
2023-05-19T07:30:53.195Z,3.30
2023-05-19T07:33:21.858Z,2.60
2023-05-19T07:35:50.521Z,3.27
2023-05-19T07:38:19.238Z,2.53
2023-05-19T07:40:47.943Z,2.97
2023-05-19T07:43:17.947Z,2.67
2023-05-19T07:45:46.735Z,3.00
2023-05-19T07:48:15.715Z,2.30
2023-05-19T07:50:44.552Z,2.93
2023-05-19T07:53:13.225Z,3.10
2023-05-19T07:55:41.937Z,2.83
2023-05-19T07:58:10.556Z,2.60
2023-05-19T08:00:42.940Z,2.70
2023-05-19T08:03:11.820Z,3.13
2023-05-19T08:05:40.637Z,2.67
2023-05-19T08:08:09.510Z,2.67
2023-05-19T08:10:38.172Z,2.50
2023-05-19T08:13:07.697Z,2.63
2023-05-19T08:15:36.845Z,2.60
2023-05-19T08:18:07.094Z,2.33
2023-05-19T08:20:36.735Z,2.27
2023-05-19T08:23:05.475Z,2.33
2023-05-19T08:25:34.229Z,2.97
2023-05-19T08:28:02.874Z,2.90
2023-05-19T08:30:31.745Z,3.17
2023-05-19T08:33:00.598Z,2.90
2023-05-19T08:35:30.731Z,2.73
2023-05-19T08:37:59.341Z,2.63
2023-05-19T08:40:31.724Z,2.87
2023-05-19T08:43:00.617Z,3.00
2023-05-19T08:45:29.800Z,2.83
2023-05-19T08:47:59.155Z,2.37
2023-05-19T08:50:33.486Z,2.80
2023-05-19T08:53:04.674Z,2.60
2023-05-19T08:55:36.332Z,2.60
2023-05-19T08:58:05.532Z,2.60
2023-05-19T09:00:35.168Z,2.93
2023-05-19T09:03:17.568Z,2.93
2023-05-19T09:05:49.462Z,2.33
2023-05-19T09:08:18.598Z,2.83
2023-05-19T09:10:47.371Z,3.20
2023-05-19T09:13:16.060Z,2.83
2023-05-19T09:15:45.594Z,2.90
2023-05-19T09:18:15.248Z,2.67
2023-05-19T09:20:44.998Z,3.93
2023-05-19T09:23:16.159Z,2.50
2023-05-19T09:25:49.308Z,3.20
2023-05-19T09:28:25.127Z,3.17
2023-05-19T09:31:03.488Z,2.80
2023-05-19T09:33:34.111Z,3.30
2023-05-19T09:36:03.391Z,2.60
2023-05-19T09:38:33.609Z,2.47
2023-05-19T09:41:02.527Z,2.63
2023-05-19T09:43:31.712Z,3.43
2023-05-19T09:46:01.592Z,3.10
2023-05-19T09:48:31.279Z,2.53
2023-05-19T09:51:02.420Z,2.40
2023-05-19T09:53:33.804Z,3.30
2023-05-19T09:56:03.649Z,2.90
2023-05-19T09:58:34.753Z,3.20
2023-05-19T10:01:04.410Z,2.20
2023-05-19T10:03:33.675Z,3.80
2023-05-19T10:06:02.840Z,5.60
2023-05-19T10:08:33.264Z,3.57
2023-05-19T10:11:02.200Z,2.20
2023-05-19T10:13:32.044Z,2.43
2023-05-19T10:16:01.782Z,2.77
2023-05-19T10:18:31.192Z,2.57
2023-05-19T10:21:00.295Z,3.27
2023-05-19T10:23:28.965Z,4.37
2023-05-19T10:25:59.927Z,2.57
2023-05-19T10:28:42.137Z,2.83
2023-05-19T10:31:14.756Z,2.70
2023-05-19T10:33:53.438Z,2.77
2023-05-19T10:36:40.640Z,2.80
2023-05-19T10:39:14.161Z,3.37
2023-05-19T10:41:48.474Z,2.63
2023-05-19T10:44:24.574Z,2.90
2023-05-19T10:46:55.651Z,2.63
2023-05-19T10:49:25.512Z,2.70
2023-05-19T10:51:59.168Z,2.17
2023-05-19T10:54:43.644Z,1.90
2023-05-19T10:57:17.546Z,2.37
2023-05-19T10:59:46.295Z,2.77
2023-05-19T11:02:39.901Z,2.20
2023-05-19T11:05:10.539Z,2.30
2023-05-19T11:07:42.691Z,2.63
2023-05-19T11:10:12.511Z,2.70
2023-05-19T11:12:44.064Z,4.20
2023-05-19T11:15:13.868Z,2.40
2023-05-19T11:17:44.027Z,3.33
2023-05-19T11:20:23.748Z,2.50
2023-05-19T11:23:08.380Z,2.57
2023-05-19T11:25:44.926Z,2.17
2023-05-19T11:28:17.337Z,2.97
2023-05-19T11:30:50.633Z,2.20
2023-05-19T11:33:20.957Z,2.40
2023-05-19T11:35:51.489Z,2.50
2023-05-19T11:38:20.421Z,2.90
2023-05-19T11:40:50.036Z,3.90
2023-05-19T11:43:20.112Z,3.13
2023-05-19T11:45:48.821Z,2.53
2023-05-19T11:48:18.267Z,2.30
2023-05-19T11:50:47.139Z,2.63
2023-05-19T11:53:16.407Z,2.20
2023-05-19T11:55:47.051Z,2.50
2023-05-19T11:58:16.206Z,3.10
2023-05-19T12:00:47.564Z,2.40
2023-05-19T12:03:17.404Z,2.80
2023-05-19T12:05:47.794Z,2.60
2023-05-19T12:08:18.153Z,2.57
2023-05-19T12:10:49.363Z,3.30
2023-05-19T12:13:18.040Z,3.13
2023-05-19T12:15:48.233Z,2.90
2023-05-19T12:18:17.053Z,2.70
2023-05-19T12:20:45.812Z,3.23
2023-05-19T12:23:15.026Z,2.97
2023-05-19T12:25:43.783Z,2.73
2023-05-19T12:28:12.465Z,2.80
2023-05-19T12:30:41.482Z,2.63
2023-05-19T12:33:11.878Z,3.20
2023-05-19T12:35:40.718Z,2.73
2023-05-19T12:38:09.420Z,2.90
2023-05-19T12:40:42.480Z,3.10
2023-05-19T12:43:20.117Z,2.40
2023-05-19T12:45:48.882Z,2.97
2023-05-19T12:48:20.006Z,3.27
2023-05-19T12:50:49.387Z,3.30
2023-05-19T12:53:18.773Z,3.80
2023-05-19T12:55:47.495Z,2.90
2023-05-19T12:58:16.758Z,2.63
2023-05-19T13:00:48.412Z,2.60
2023-05-19T13:03:19.632Z,2.40
2023-05-19T13:05:50.371Z,2.97
2023-05-19T13:08:20.560Z,3.03
2023-05-19T13:10:49.882Z,2.50
2023-05-19T13:13:18.720Z,2.83
2023-05-19T13:15:49.910Z,3.50
2023-05-19T13:18:20.080Z,2.90
2023-05-19T13:20:50.192Z,3.23
2023-05-19T13:23:19.281Z,3.10
2023-05-19T13:25:48.038Z,2.67
2023-05-19T13:28:16.709Z,2.73
2023-05-19T13:30:46.157Z,3.13
2023-05-19T13:33:15.096Z,3.23
2023-05-19T13:35:45.143Z,2.93
2023-05-19T13:38:14.615Z,2.90
2023-05-19T13:40:43.295Z,3.17
2023-05-19T13:43:11.941Z,3.10
2023-05-19T13:45:42.157Z,2.73
2023-05-19T13:48:11.767Z,3.40
2023-05-19T13:50:40.474Z,2.80
2023-05-19T13:53:11.522Z,2.97
2023-05-19T13:55:40.640Z,3.17
2023-05-19T13:58:10.976Z,2.80
2023-05-19T14:00:39.825Z,3.33
2023-05-19T14:03:08.673Z,3.13
2023-05-19T14:05:37.430Z,3.23
2023-05-19T14:08:06.766Z,3.20
2023-05-19T14:10:36.772Z,2.70
2023-05-19T14:13:30.355Z,2.93
2023-05-19T14:15:54.336Z,3.60
2023-05-19T14:18:22.979Z,4.73
2023-05-19T14:20:51.706Z,5.37
2023-05-19T14:23:21.540Z,4.17
2023-05-19T14:25:51.603Z,3.10
2023-05-19T14:28:20.794Z,3.33
2023-05-19T14:30:49.966Z,5.00
2023-05-19T14:33:19.374Z,3.30
2023-05-19T14:35:49.306Z,3.60
2023-05-19T14:38:18.055Z,3.07
2023-05-19T14:40:48.445Z,3.23
2023-05-19T14:43:18.688Z,2.60
2023-05-19T14:45:47.424Z,3.10
2023-05-19T14:48:16.248Z,3.40
2023-05-19T14:50:45.090Z,2.80
2023-05-19T14:53:13.716Z,4.30
2023-05-19T14:55:42.409Z,3.40
2023-05-19T14:58:27.039Z,3.30
2023-05-19T15:01:00.104Z,3.27
2023-05-19T15:03:28.946Z,3.10
2023-05-19T15:05:57.751Z,3.37
2023-05-19T15:08:26.533Z,2.30
2023-05-19T15:10:55.180Z,2.63
2023-05-19T15:13:23.850Z,2.70
2023-05-19T15:16:08.246Z,2.83
2023-05-19T15:18:45.197Z,3.00
2023-05-19T15:21:14.057Z,3.07
2023-05-19T15:23:42.783Z,3.10
2023-05-19T15:26:11.445Z,2.70
2023-05-19T15:28:40.223Z,3.00
2023-05-19T15:31:08.882Z,3.23
2023-05-19T15:33:37.731Z,2.80
2023-05-19T15:36:07.880Z,3.17
2023-05-19T15:38:37.180Z,2.60
2023-05-19T15:41:08.124Z,2.43
2023-05-19T15:43:36.919Z,2.67
2023-05-19T15:46:06.056Z,2.50
2023-05-19T15:48:34.917Z,2.20
2023-05-19T15:51:03.648Z,2.20
2023-05-19T15:53:33.701Z,2.70
2023-05-19T15:56:03.976Z,2.73
2023-05-19T15:58:33.425Z,3.20
2023-05-19T16:01:02.192Z,2.20
2023-05-19T16:03:31.007Z,2.90
2023-05-19T16:06:00.714Z,2.93
2023-05-19T16:08:29.628Z,2.90
2023-05-19T16:10:59.632Z,2.67
2023-05-19T16:13:28.354Z,2.60
2023-05-19T16:15:57.067Z,2.60
2023-05-19T16:18:25.916Z,2.60
2023-05-19T16:20:54.607Z,2.70
2023-05-19T16:23:24.745Z,2.60
2023-05-19T16:25:54.632Z,2.60
2023-05-19T16:28:25.117Z,2.80
2023-05-19T16:30:53.897Z,2.20
2023-05-19T16:33:22.515Z,2.47
2023-05-19T16:35:51.408Z,2.30
2023-05-19T16:38:20.392Z,2.67
2023-05-19T16:40:49.045Z,3.30
2023-05-19T16:43:17.734Z,3.20
2023-05-19T16:45:47.797Z,2.70
2023-05-19T16:48:16.566Z,3.30
2023-05-19T16:50:45.239Z,3.50
2023-05-19T16:53:13.914Z,2.70
2023-05-19T16:55:42.584Z,2.40
2023-05-19T16:58:11.601Z,2.77
2023-05-19T17:00:40.389Z,1.93
2023-05-19T17:03:11.664Z,2.63
2023-05-19T17:05:43.323Z,2.73
2023-05-19T17:08:12.599Z,2.70
2023-05-19T17:10:41.386Z,2.93
2023-05-19T17:13:10.038Z,2.60
2023-05-19T17:15:39.995Z,3.07
2023-05-19T17:18:12.630Z,2.30
2023-05-19T17:20:41.588Z,2.10
2023-05-19T17:23:10.607Z,2.90
2023-05-19T17:25:39.208Z,2.73
2023-05-19T17:28:07.881Z,2.80
2023-05-19T17:30:36.599Z,2.50
2023-05-19T17:33:05.762Z,2.40
2023-05-19T17:35:35.873Z,2.57
2023-05-19T17:38:04.599Z,3.03
2023-05-19T17:40:33.491Z,3.20
2023-05-19T17:43:02.394Z,2.70
2023-05-19T17:45:31.158Z,2.67
2023-05-19T17:47:59.940Z,2.90
2023-05-19T17:50:28.702Z,3.30
2023-05-19T17:52:59.303Z,2.50
2023-05-19T17:55:31.011Z,3.07
2023-05-19T17:58:00.276Z,2.77
2023-05-19T18:00:29.473Z,2.50
2023-05-19T18:02:58.988Z,2.73
2023-05-19T18:05:28.643Z,2.73
2023-05-19T18:07:58.919Z,5.40
2023-05-19T18:10:28.553Z,3.43
2023-05-19T18:12:57.213Z,3.07
2023-05-19T18:15:25.868Z,2.80
2023-05-19T18:17:54.563Z,2.20
2023-05-19T18:20:23.340Z,2.63
2023-05-19T18:22:53.145Z,2.70
2023-05-19T18:25:23.125Z,2.70
2023-05-19T18:27:55.627Z,2.40
2023-05-19T18:30:24.622Z,2.93
2023-05-19T18:32:53.271Z,3.00
2023-05-19T18:35:22.012Z,2.80
2023-05-19T18:37:50.716Z,3.60
2023-05-19T18:40:19.412Z,3.10
2023-05-19T18:42:49.467Z,3.37
2023-05-19T18:45:18.235Z,2.80
2023-05-19T18:47:46.925Z,3.53
2023-05-19T18:50:16.512Z,3.20
2023-05-19T18:52:45.177Z,3.20
2023-05-19T18:55:13.777Z,4.10
2023-05-19T18:57:42.461Z,3.10
2023-05-19T19:00:14.570Z,3.40
2023-05-19T19:02:43.281Z,2.70
2023-05-19T19:05:13.769Z,3.20
2023-05-19T19:07:43.252Z,3.20
2023-05-19T19:10:12.232Z,3.30
2023-05-19T19:12:40.959Z,2.87
2023-05-19T19:15:10.873Z,2.87
2023-05-19T19:17:41.173Z,3.80
2023-05-19T19:20:11.083Z,3.40
2023-05-19T19:22:39.851Z,3.30
2023-05-19T19:25:09.315Z,3.80
2023-05-19T19:27:37.966Z,4.47
2023-05-19T19:30:08.023Z,3.70
2023-05-19T19:32:36.791Z,3.40
2023-05-19T19:35:07.332Z,4.10
2023-05-19T19:37:36.049Z,4.20
2023-05-19T19:40:05.226Z,4.50
2023-05-19T19:42:34.090Z,4.23
2023-05-19T19:45:02.938Z,4.13
2023-05-19T19:47:32.716Z,4.43
2023-05-19T19:50:05.477Z,4.00
2023-05-19T19:52:35.499Z,4.03
2023-05-19T19:55:04.492Z,3.70
2023-05-19T19:57:34.241Z,4.23
2023-05-19T20:00:08.054Z,4.20
2023-05-19T20:02:45.548Z,3.63
2023-05-19T20:05:24.473Z,2.93
2023-05-19T20:07:54.527Z,3.60
2023-05-19T20:10:23.270Z,2.90
2023-05-19T20:12:52.196Z,4.17
2023-05-19T20:15:21.114Z,3.47
2023-05-19T20:17:49.788Z,5.10
2023-05-19T20:20:18.664Z,5.20
2023-05-19T20:22:47.630Z,5.07
2023-05-19T20:25:17.744Z,3.90
2023-05-19T20:27:46.414Z,4.20
2023-05-19T20:30:15.080Z,3.83
2023-05-19T20:32:43.754Z,3.90
2023-05-19T20:35:12.522Z,3.70
2023-05-19T20:37:41.358Z,4.03
2023-05-19T20:40:11.111Z,4.03
2023-05-19T20:42:41.771Z,3.90
2023-05-19T20:45:10.679Z,4.23
2023-05-19T20:47:39.411Z,4.60
2023-05-19T20:50:09.079Z,4.10
2023-05-19T20:52:37.696Z,4.77
2023-05-19T20:55:06.727Z,4.60
2023-05-19T20:57:35.800Z,4.50
2023-05-19T21:00:07.009Z,4.30
2023-05-19T21:02:35.795Z,4.80
2023-05-19T21:05:05.356Z,4.33
2023-05-19T21:07:34.180Z,4.27
2023-05-19T21:10:02.892Z,4.47
2023-05-19T21:12:34.272Z,5.00
2023-05-19T21:15:05.950Z,4.10
2023-05-19T21:17:34.678Z,3.80
2023-05-19T21:20:03.852Z,4.40
2023-05-19T21:22:32.805Z,4.10
2023-05-19T21:25:01.496Z,4.83
2023-05-19T21:27:32.185Z,4.70
2023-05-19T21:30:00.842Z,3.90
2023-05-19T21:32:30.907Z,4.63
2023-05-19T21:34:59.989Z,4.60
2023-05-19T21:37:28.663Z,4.20
2023-05-19T21:39:57.326Z,5.97
2023-05-19T21:42:25.966Z,6.30
2023-05-19T21:44:54.860Z,5.70
2023-05-19T21:47:23.693Z,4.87
2023-05-19T21:49:53.705Z,5.27
2023-05-19T21:52:22.932Z,5.40
2023-05-19T21:54:51.928Z,4.90
2023-05-19T21:57:20.644Z,4.90
2023-05-19T21:59:49.950Z,4.40
2023-05-19T22:02:18.650Z,4.77
2023-05-19T22:04:47.310Z,4.57
2023-05-19T22:07:17.467Z,4.50
2023-05-19T22:09:48.160Z,4.90
2023-05-19T22:12:17.719Z,4.60
2023-05-19T22:14:46.592Z,4.70
2023-05-19T22:17:15.391Z,5.33
2023-05-19T22:19:43.974Z,5.80
2023-05-19T22:22:14.300Z,5.33
2023-05-19T22:24:44.848Z,5.70
2023-05-19T22:27:13.459Z,5.40
2023-05-19T22:29:42.088Z,4.43
2023-05-19T22:32:12.157Z,4.70
2023-05-19T22:34:41.066Z,4.93
2023-05-19T22:37:09.697Z,4.37
2023-05-19T22:39:39.380Z,4.77
2023-05-19T22:42:09.392Z,3.93
2023-05-19T22:44:38.054Z,4.70
2023-05-19T22:47:06.838Z,4.30
2023-05-19T22:49:35.732Z,5.00
2023-05-19T22:52:04.626Z,5.20
2023-05-19T22:54:33.327Z,5.27
2023-05-19T22:57:03.344Z,6.43
2023-05-19T22:59:33.621Z,5.70
2023-05-19T23:02:02.511Z,4.50
2023-05-19T23:04:31.446Z,5.43
2023-05-19T23:07:00.199Z,5.40
2023-05-19T23:09:29.099Z,5.20
2023-05-19T23:11:57.791Z,4.90
2023-05-19T23:14:26.826Z,4.50
2023-05-19T23:16:56.953Z,4.23
2023-05-19T23:19:25.815Z,4.67
2023-05-19T23:21:54.492Z,4.47
2023-05-19T23:24:23.159Z,4.40
2023-05-19T23:26:52.023Z,4.50
2023-05-19T23:29:20.735Z,4.60
2023-05-19T23:31:49.411Z,4.80
2023-05-19T23:34:19.457Z,5.00
2023-05-19T23:36:48.236Z,4.63
2023-05-19T23:39:16.933Z,4.73
2023-05-19T23:41:46.101Z,4.30
2023-05-19T23:44:14.757Z,4.40
2023-05-19T23:46:43.492Z,4.83
2023-05-19T23:49:12.146Z,4.77
2023-05-19T23:51:42.962Z,4.70
2023-05-19T23:54:11.645Z,4.40
2023-05-19T23:56:40.375Z,4.10
2023-05-19T23:59:09.018Z,4.40
